createdAt,value
2019-05-02T00:01:05.219Z,9.34
2019-05-02T00:06:13.422Z,9.41
2019-05-02T00:11:22.021Z,9.45
2019-05-02T00:16:30.119Z,9.46
2019-05-02T00:21:40.749Z,9.46
2019-05-02T00:26:46.535Z,9.56
2019-05-02T00:31:53.953Z,9.65
2019-05-02T00:37:01.373Z,9.69
2019-05-02T00:42:12.719Z,9.72
2019-05-02T00:47:35.113Z,9.81
2019-05-02T00:52:42.515Z,9.90
2019-05-02T00:57:50.968Z,9.94
2019-05-02T01:03:02.206Z,10.01
2019-05-02T01:08:09.528Z,10.14
2019-05-02T01:13:19.164Z,10.11
2019-05-02T01:18:25.810Z,10.24
2019-05-02T01:23:33.132Z,10.21
2019-05-02T01:28:58.771Z,10.24
2019-05-02T01:34:37.185Z,10.25
2019-05-02T01:39:44.605Z,10.32
2019-05-02T01:44:52.007Z,10.38
2019-05-02T01:49:59.322Z,10.39
2019-05-02T01:55:06.779Z,10.43
2019-05-02T02:00:14.727Z,10.39
2019-05-02T02:05:22.143Z,10.31
2019-05-02T02:10:29.504Z,10.27
2019-05-02T02:15:36.817Z,10.25
2019-05-02T02:21:01.541Z,10.25
2019-05-02T02:26:12.200Z,10.22
2019-05-02T02:31:22.499Z,10.05
2019-05-02T02:36:34.225Z,9.99
2019-05-02T02:41:39.381Z,10.01
2019-05-02T02:46:47.159Z,10.07
2019-05-02T02:51:58.312Z,10.22
2019-05-02T02:57:03.588Z,10.22
2019-05-02T03:02:12.385Z,10.20
2019-05-02T03:07:25.962Z,10.34
2019-05-02T03:12:49.987Z,10.35
2019-05-02T03:17:59.988Z,10.34
2019-05-02T03:23:06.323Z,10.33
2019-05-02T03:28:18.607Z,10.16
2019-05-02T03:33:23.057Z,9.98
2019-05-02T03:38:32.660Z,9.96
2019-05-02T03:43:39.582Z,9.91
2019-05-02T03:48:46.933Z,9.76
2019-05-02T03:54:06.448Z,9.59
2019-05-02T03:59:03.365Z,9.57
2019-05-02T04:04:14.221Z,9.59
2019-05-02T04:09:39.538Z,9.54
2019-05-02T04:14:45.960Z,9.48
2019-05-02T04:19:53.798Z,9.53
2019-05-02T04:25:01.440Z,9.54
2019-05-02T04:30:11.610Z,9.56
2019-05-02T04:35:18.013Z,9.75
2019-05-02T04:40:28.186Z,9.87
2019-05-02T04:45:50.872Z,10.15
2019-05-02T04:50:43.283Z,10.24
2019-05-02T04:56:01.512Z,10.43
2019-05-02T05:01:01.864Z,10.49
2019-05-02T05:06:12.129Z,10.65
2019-05-02T05:11:20.826Z,10.52
2019-05-02T05:16:28.504Z,10.78
2019-05-02T05:21:37.422Z,10.78
2019-05-02T05:26:47.678Z,10.68
2019-05-02T05:32:02.842Z,10.79
2019-05-02T05:37:09.541Z,10.53
2019-05-02T05:42:13.021Z,10.55
2019-05-02T05:47:21.383Z,10.69
2019-05-02T05:52:33.051Z,10.64
2019-05-02T05:57:38.485Z,10.83
2019-05-02T06:02:53.886Z,11.00
2019-05-02T06:07:54.879Z,10.92
2019-05-02T06:13:05.367Z,11.20
2019-05-02T06:18:11.238Z,11.03
2019-05-02T06:23:19.558Z,11.14
2019-05-02T06:28:26.849Z,11.39
2019-05-02T06:33:35.290Z,11.03
2019-05-02T06:38:42.569Z,11.25
2019-05-02T06:43:49.913Z,11.31
2019-05-02T06:48:57.324Z,11.62
2019-05-02T06:54:04.811Z,11.59
2019-05-02T06:59:13.139Z,11.73
2019-05-02T07:04:22.923Z,11.82
2019-05-02T07:09:40.553Z,11.97
2019-05-02T07:14:39.392Z,12.22
2019-05-02T07:19:49.275Z,12.06
2019-05-02T07:24:56.641Z,12.35
2019-05-02T07:30:04.361Z,12.82
2019-05-02T07:35:11.915Z,13.13
2019-05-02T07:40:20.147Z,13.00
2019-05-02T07:45:27.554Z,13.13
2019-05-02T07:50:34.919Z,13.39
2019-05-02T07:55:42.707Z,13.25
2019-05-02T08:00:50.218Z,13.41
2019-05-02T08:05:58.653Z,13.27
2019-05-02T08:11:06.673Z,13.74
2019-05-02T08:16:13.984Z,13.45
2019-05-02T08:21:21.286Z,14.05
2019-05-02T08:26:32.459Z,13.66
2019-05-02T08:31:39.882Z,14.85
2019-05-02T08:36:47.227Z,14.06
2019-05-02T08:41:56.377Z,14.72
2019-05-02T08:47:03.417Z,14.44
2019-05-02T08:52:10.729Z,15.57
2019-05-02T08:57:17.995Z,16.20
2019-05-02T09:02:25.863Z,16.16
2019-05-02T09:07:37.186Z,15.61
2019-05-02T09:12:45.449Z,16.33
2019-05-02T09:17:56.486Z,16.24
2019-05-02T09:23:02.454Z,16.07
2019-05-02T09:28:09.771Z,16.23
2019-05-02T09:33:17.208Z,16.50
2019-05-02T09:38:24.527Z,18.67
2019-05-02T09:43:37.515Z,19.01
2019-05-02T09:48:42.648Z,19.40
2019-05-02T09:53:52.214Z,23.54
2019-05-02T09:59:04.785Z,22.96
2019-05-02T10:04:09.164Z,22.47
2019-05-02T10:09:18.637Z,22.48
2019-05-02T10:14:25.341Z,19.79
2019-05-02T10:19:32.833Z,20.96
2019-05-02T10:24:40.226Z,19.95
2019-05-02T10:29:47.530Z,23.76
2019-05-02T10:34:56.795Z,23.83
2019-05-02T10:40:07.880Z,21.88
2019-05-02T10:45:16.749Z,24.48
2019-05-02T10:50:28.969Z,26.87
2019-05-02T10:55:36.399Z,26.63
2019-05-02T11:00:45.492Z,29.49
2019-05-02T11:05:58.032Z,28.60
2019-05-02T11:11:06.419Z,28.49
2019-05-02T11:16:32.131Z,31.49
2019-05-02T11:21:52.275Z,30.16
2019-05-02T11:26:48.715Z,28.88
2019-05-02T11:31:56.041Z,28.81
2019-05-02T11:37:04.418Z,30.01
2019-05-02T11:42:12.484Z,27.76
2019-05-02T11:47:22.724Z,24.54
2019-05-02T11:52:35.647Z,25.28
2019-05-02T11:57:37.882Z,22.54
2019-05-02T12:03:04.028Z,23.93
2019-05-02T12:08:12.141Z,25.41
2019-05-02T12:13:19.661Z,28.63
2019-05-02T12:18:26.965Z,27.30
2019-05-02T12:23:36.168Z,22.40
2019-05-02T12:28:43.576Z,23.24
2019-05-02T12:33:51.622Z,20.04
2019-05-02T12:38:59.045Z,19.53
2019-05-02T12:44:09.408Z,18.45
2019-05-02T12:49:25.295Z,18.91
2019-05-02T12:54:27.548Z,18.69
2019-05-02T12:59:34.888Z,19.99
2019-05-02T13:04:42.158Z,19.68
2019-05-02T13:09:49.483Z,19.75
2019-05-02T13:14:58.407Z,21.18
2019-05-02T13:20:08.000Z,22.40
2019-05-02T13:25:18.325Z,24.44
2019-05-02T13:30:42.710Z,23.81
2019-05-02T13:35:51.900Z,27.18
2019-05-02T13:40:59.392Z,26.29
2019-05-02T13:46:14.608Z,28.27
2019-05-02T13:51:22.351Z,30.23
2019-05-02T13:56:52.677Z,26.46
2019-05-02T14:02:03.633Z,25.37
2019-05-02T14:07:15.882Z,22.81
2019-05-02T14:12:26.095Z,21.47
2019-05-02T14:17:33.489Z,20.92
2019-05-02T14:22:42.483Z,19.17
2019-05-02T14:27:53.728Z,18.86
2019-05-02T14:33:02.363Z,19.77
2019-05-02T14:38:16.796Z,21.23
2019-05-02T14:43:46.696Z,22.06
2019-05-02T14:48:53.489Z,22.76
2019-05-02T14:54:06.136Z,22.55
2019-05-02T14:59:15.304Z,23.24
2019-05-02T15:04:19.507Z,20.91
2019-05-02T15:09:27.179Z,21.82
2019-05-02T15:14:36.740Z,21.72
2019-05-02T15:19:44.059Z,20.73
2019-05-02T15:24:53.264Z,20.12
2019-05-02T15:30:01.892Z,20.27
2019-05-02T15:35:24.941Z,19.98
2019-05-02T15:45:36.739Z,19.25
2019-05-02T15:50:52.243Z,19.69
2019-05-02T15:55:58.302Z,19.69
2019-05-02T16:01:24.482Z,18.77
2019-05-02T16:06:34.193Z,18.96
2019-05-02T16:11:43.573Z,18.90
2019-05-02T16:16:52.153Z,18.55
2019-05-02T16:22:16.318Z,18.34
2019-05-02T16:27:44.357Z,18.28
2019-05-02T16:32:58.412Z,17.80
2019-05-02T16:38:06.121Z,18.07
2019-05-02T16:43:14.141Z,18.10
2019-05-02T16:48:22.213Z,17.31
2019-05-02T16:53:31.611Z,17.24
2019-05-02T16:58:45.315Z,16.89
2019-05-02T17:03:49.262Z,16.89
2019-05-02T17:09:15.366Z,16.83
2019-05-02T17:14:22.856Z,16.56
2019-05-02T17:19:34.760Z,16.20
2019-05-02T17:24:41.821Z,16.02
2019-05-02T17:29:52.496Z,15.90
2019-05-02T17:35:02.674Z,15.75
2019-05-02T17:40:12.232Z,15.54
2019-05-02T17:45:20.617Z,15.36
2019-05-02T17:50:49.509Z,15.04
2019-05-02T17:55:54.586Z,14.85
2019-05-02T18:01:03.830Z,14.68
2019-05-02T18:06:13.216Z,14.41
2019-05-02T18:11:22.278Z,14.24
2019-05-02T18:16:29.459Z,14.10
2019-05-02T18:21:36.769Z,13.98
2019-05-02T18:26:44.024Z,13.81
2019-05-02T18:31:52.131Z,13.55
2019-05-02T18:37:03.031Z,13.45
2019-05-02T18:42:08.996Z,13.30
2019-05-02T18:47:20.221Z,13.16
2019-05-02T18:52:35.588Z,12.99
2019-05-02T18:57:35.469Z,12.81
2019-05-02T19:02:43.521Z,12.57
2019-05-02T19:07:54.818Z,12.58
2019-05-02T19:13:04.439Z,12.42
2019-05-02T19:18:17.769Z,12.30
2019-05-02T19:23:22.493Z,12.17
2019-05-02T19:28:38.403Z,11.97
2019-05-02T19:33:44.450Z,11.91
2019-05-02T19:38:52.572Z,11.78
2019-05-02T19:44:02.205Z,11.62
2019-05-02T19:49:12.414Z,11.57
2019-05-02T19:54:19.500Z,11.43
2019-05-02T19:59:29.592Z,11.21
2019-05-02T20:04:37.672Z,11.05
2019-05-02T20:09:47.212Z,10.99
2019-05-02T20:14:54.907Z,10.77
2019-05-02T20:20:07.051Z,10.68
2019-05-02T20:25:14.028Z,10.59
2019-05-02T20:30:22.477Z,10.35
2019-05-02T20:35:31.892Z,10.34
2019-05-02T20:40:39.843Z,10.34
2019-05-02T20:45:47.596Z,10.21
2019-05-02T20:50:55.278Z,10.07
2019-05-02T20:56:03.192Z,10.08
2019-05-02T21:01:12.449Z,9.92
2019-05-02T21:06:45.590Z,9.84
2019-05-02T21:11:58.697Z,9.70
2019-05-02T21:17:06.481Z,9.53
2019-05-02T21:22:26.129Z,9.54
2019-05-02T21:27:33.956Z,9.47
2019-05-02T21:32:42.852Z,9.35
2019-05-02T21:37:52.431Z,9.25
2019-05-02T21:43:00.044Z,9.29
2019-05-02T21:48:07.675Z,9.17
2019-05-02T21:53:34.347Z,9.12
2019-05-02T21:59:02.829Z,9.01
2019-05-02T22:04:13.090Z,9.05
2019-05-02T22:09:23.073Z,8.91
2019-05-02T22:14:32.881Z,8.80
2019-05-02T22:19:41.680Z,8.79
2019-05-02T22:24:49.500Z,8.70
2019-05-02T22:29:57.238Z,8.76
2019-05-02T22:35:05.407Z,8.69
2019-05-02T22:40:14.316Z,8.72
2019-05-02T22:45:22.095Z,8.69
2019-05-02T22:50:30.038Z,9.04
2019-05-02T22:55:37.894Z,9.30
2019-05-02T23:00:45.455Z,9.47
2019-05-02T23:05:53.178Z,9.56
2019-05-02T23:11:01.065Z,9.54
2019-05-02T23:16:08.989Z,9.53
2019-05-02T23:21:16.876Z,9.45
2019-05-02T23:26:36.451Z,9.37
2019-05-02T23:31:44.398Z,9.37
2019-05-02T23:36:52.377Z,9.40
2019-05-02T23:42:01.904Z,9.38
2019-05-02T23:47:11.639Z,9.42
2019-05-02T23:52:19.170Z,9.49
2019-05-02T23:57:26.892Z,9.52
